Time;durP1;ratioP1;P1;durP2;ratioP2;P2;SDS_P1;SDS_P2;PMS_P1;PMS_P2;Temp;Humidity;BMP_temperature;BMP_pressure;BME280_temperature;BME280_humidity;BME280_pressure;Samples;Min_cycle;Max_cycle;Signal;HPM_P1;HPM_P2
2023/03/30 00:02:09;;;;;;;14.00;12.60;;;8.00;99.90;;;;;;6183628;23;20158;-79
2023/03/30 00:04:36;;;;;;;14.80;12.67;;;7.90;99.90;;;;;;6210562;23;20292;-78
2023/03/30 00:07:03;;;;;;;13.63;12.23;;;7.80;99.90;;;;;;6184256;23;20236;-78
2023/03/30 00:09:29;;;;;;;13.53;12.13;;;7.80;99.90;;;;;;6183833;23;20470;-79
2023/03/30 00:11:55;;;;;;;14.30;12.80;;;7.80;99.90;;;;;;6210403;23;20151;-78
2023/03/30 00:14:28;;;;;;;13.73;12.10;;;7.90;99.90;;;;;;6210232;23;20154;-79
2023/03/30 00:16:54;;;;;;;16.23;12.53;;;7.90;99.90;;;;;;6210572;23;20591;-79
2023/03/30 00:19:20;;;;;;;13.17;11.93;;;7.90;1.00;;;;;;6210418;23;20197;-78
2023/03/30 00:21:46;;;;;;;13.20;11.90;;;7.90;1.00;;;;;;6210438;23;20155;-78
2023/03/30 00:24:12;;;;;;;13.40;12.10;;;7.90;1.00;;;;;;6210736;23;20159;-79
2023/03/30 00:26:40;;;;;;;13.07;11.67;;;7.90;1.00;;;;;;6210266;23;20193;-79
2023/03/30 00:29:06;;;;;;;13.83;12.43;;;8.00;1.00;;;;;;6212478;23;20178;-79
2023/03/30 00:31:31;;;;;;;13.97;12.57;;;8.00;1.00;;;;;;6210826;23;20154;-79
2023/03/30 00:33:57;;;;;;;13.50;12.07;;;8.00;1.00;;;;;;6184138;23;20158;-79
2023/03/30 00:36:22;;;;;;;13.30;11.90;;;7.90;1.00;;;;;;6210752;23;20228;-78
2023/03/30 00:38:48;;;;;;;13.70;12.33;;;8.10;1.00;;;;;;6210640;23;20158;-79
2023/03/30 00:41:14;;;;;;;13.47;11.53;;;8.00;1.00;;;;;;6183787;23;20166;-78
2023/03/30 00:43:56;;;;;;;13.83;12.40;;;8.00;1.00;;;;;;6210565;23;20177;-78
2023/03/30 00:46:22;;;;;;;13.93;12.33;;;7.90;1.00;;;;;;6209887;23;20186;-79
2023/03/30 00:48:48;;;;;;;13.97;12.67;;;7.90;1.00;;;;;;6183764;23;20166;-78
2023/03/30 00:51:14;;;;;;;14.17;12.03;;;7.90;1.00;;;;;;6209871;23;20162;-78
2023/03/30 00:53:46;;;;;;;13.83;12.53;;;7.80;1.00;;;;;;6183466;23;20165;-78
2023/03/30 00:56:15;;;;;;;14.50;12.93;;;7.80;1.00;;;;;;6209568;23;20500;-78
2023/03/30 00:58:42;;;;;;;14.90;13.30;;;7.70;1.00;;;;;;6208869;23;20154;-78
2023/03/30 01:01:11;;;;;;;15.83;14.23;;;7.70;1.00;;;;;;6208822;23;20936;-78
2023/03/30 01:03:49;;;;;;;15.23;13.63;;;7.70;1.00;;;;;;6182751;23;20151;-78
2023/03/30 01:06:16;;;;;;;14.47;13.07;;;7.60;1.00;;;;;;6209126;23;20178;-78
2023/03/30 01:08:43;;;;;;;15.40;13.77;;;7.60;1.00;;;;;;6209035;23;20146;-78
2023/03/30 01:11:09;;;;;;;14.60;12.50;;;7.60;1.00;;;;;;6209149;23;20494;-78
2023/03/30 01:13:44;;;;;;;14.57;12.93;;;7.60;1.00;;;;;;6182502;23;20165;-80
2023/03/30 01:16:25;;;;;;;14.57;12.43;;;7.60;1.00;;;;;;6184683;23;20185;-79
2023/03/30 01:19:15;;;;;;;15.47;13.97;;;7.50;1.00;;;;;;6184664;23;20525;-80
2023/03/30 01:21:58;;;;;;;14.00;12.67;;;7.40;1.00;;;;;;6184242;23;20492;-79
2023/03/30 01:24:26;;;;;;;15.23;13.37;;;7.30;1.00;;;;;;6210995;23;20141;-79
2023/03/30 01:26:59;;;;;;;17.60;14.67;;;7.20;1.00;;;;;;6182367;23;20212;-78
2023/03/30 01:29:37;;;;;;;16.83;15.03;;;7.40;1.00;;;;;;6182521;23;20598;-78
2023/03/30 01:32:37;;;;;;;17.10;14.37;;;7.40;1.00;;;;;;6208447;23;20138;-78
2023/03/30 01:35:45;;;;;;;14.83;12.90;;;7.40;1.00;;;;;;6129209;23;20178;-78
2023/03/30 01:38:20;;;;;;;14.40;13.00;;;7.30;1.00;;;;;;6076044;23;20623;-78
2023/03/30 01:41:31;;;;;;;15.97;13.63;;;7.20;1.00;;;;;;6181482;23;20150;-78
2023/03/30 01:44:23;;;;;;;15.43;13.90;;;7.20;1.00;;;;;;6200814;23;20162;-79
2023/03/30 01:47:15;;;;;;;16.17;14.43;;;7.20;1.00;;;;;;6208282;23;20178;-78
2023/03/30 01:49:55;;;;;;;16.43;14.70;;;7.30;1.00;;;;;;6209527;23;20153;-78
2023/03/30 01:52:30;;;;;;;15.33;13.83;;;7.40;1.00;;;;;;6183080;23;20232;-78
2023/03/30 01:55:08;;;;;;;15.77;14.07;;;7.30;1.00;;;;;;6183200;23;20843;-79
2023/03/30 01:57:45;;;;;;;16.17;13.73;;;7.20;1.00;;;;;;6183291;23;20162;-79
2023/03/30 02:00:13;;;;;;;14.00;12.57;;;7.10;1.00;;;;;;6209744;23;20149;-79
2023/03/30 02:03:04;;;;;;;15.33;13.73;;;7.00;1.00;;;;;;6209007;23;20244;-79
2023/03/30 02:05:32;;;;;;;14.73;13.30;;;7.00;1.00;;;;;;6210309;23;20559;-78
2023/03/30 02:08:07;;;;;;;16.23;14.57;;;6.90;1.00;;;;;;6209914;23;20189;-78
2023/03/30 02:10:35;;;;;;;15.30;13.70;;;6.90;1.00;;;;;;6209059;23;20142;-79
2023/03/30 02:13:04;;;;;;;14.70;12.83;;;6.90;1.00;;;;;;6182751;23;20158;-78
2023/03/30 02:15:35;;;;;;;15.07;13.33;;;6.90;1.00;;;;;;6182437;23;20178;-79
2023/03/30 02:18:01;;;;;;;15.40;13.80;;;6.90;1.00;;;;;;6183400;23;20150;-79
2023/03/30 02:20:29;;;;;;;17.47;15.20;;;7.00;1.00;;;;;;6183392;23;20162;-79
2023/03/30 02:22:56;;;;;;;19.97;15.10;;;7.00;1.00;;;;;;6209206;23;20614;-79
2023/03/30 02:25:22;;;;;;;16.00;14.37;;;7.00;1.00;;;;;;6209368;23;20182;-79
2023/03/30 02:27:48;;;;;;;15.77;14.10;;;7.00;1.00;;;;;;6182941;23;20213;-79
2023/03/30 02:30:14;;;;;;;16.20;14.60;;;7.00;1.00;;;;;;6209468;23;20158;-79
2023/03/30 02:32:46;;;;;;;16.00;14.40;;;7.30;1.00;;;;;;6182879;23;20162;-79
2023/03/30 02:35:26;;;;;;;15.97;14.30;;;7.00;1.00;;;;;;6209231;23;20177;-78
2023/03/30 02:38:06;;;;;;;15.43;13.77;;;7.00;1.00;;;;;;6209398;23;20202;-79
2023/03/30 02:40:44;;;;;;;15.80;14.20;;;7.00;1.00;;;;;;6209512;23;20494;-79
2023/03/30 02:43:13;;;;;;;15.60;14.00;;;7.00;1.00;;;;;;6209378;23;20598;-80
2023/03/30 02:46:00;;;;;;;16.10;14.40;;;7.00;1.00;;;;;;6209765;23;20174;-79
2023/03/30 02:48:40;;;;;;;14.97;13.47;;;7.00;1.00;;;;;;6209662;23;20176;-80
2023/03/30 02:51:30;;;;;;;16.70;14.90;;;7.00;1.00;;;;;;6183186;23;20185;-78
2023/03/30 02:54:18;;;;;;;16.87;15.17;;;7.00;1.00;;;;;;6209612;23;20847;-79
2023/03/30 02:56:58;;;;;;;15.20;12.83;;;7.10;1.00;;;;;;6209438;23;20184;-78
2023/03/30 02:59:33;;;;;;;16.50;13.73;;;7.00;1.00;;;;;;6209678;23;20142;-78
2023/03/30 03:02:10;;;;;;;15.23;13.63;;;6.90;1.00;;;;;;6209336;23;20185;-78
2023/03/30 03:04:36;;;;;;;15.17;13.53;;;6.90;1.00;;;;;;6208692;23;20138;-79
2023/03/30 03:07:02;;;;;;;15.00;13.37;;;6.90;1.00;;;;;;6209294;23;20174;-78
2023/03/30 03:09:28;;;;;;;15.80;13.83;;;6.90;1.00;;;;;;6181932;23;20185;-79
2023/03/30 03:11:55;;;;;;;13.77;12.30;;;6.90;1.00;;;;;;6209787;23;20570;-78
2023/03/30 03:14:20;;;;;;;13.80;12.40;;;6.90;1.00;;;;;;6181934;23;20560;-80
2023/03/30 03:16:46;;;;;;;13.80;12.40;;;6.80;1.00;;;;;;6209818;23;20162;-79
2023/03/30 03:19:12;;;;;;;13.83;12.47;;;6.80;1.00;;;;;;6183146;23;20185;-78
2023/03/30 03:21:38;;;;;;;13.83;12.43;;;6.80;1.00;;;;;;6209904;23;20492;-79
2023/03/30 03:24:05;;;;;;;14.87;12.57;;;6.90;1.00;;;;;;6212548;23;20185;-79
2023/03/30 03:26:30;;;;;;;13.47;12.03;;;6.90;1.00;;;;;;6185696;23;20615;-79
2023/03/30 03:28:56;;;;;;;13.37;11.97;;;7.00;1.00;;;;;;6212807;23;20225;-79
2023/03/30 03:31:23;;;;;;;14.27;12.33;;;7.20;1.00;;;;;;6212659;23;20221;-80
2023/03/30 03:33:49;;;;;;;14.33;12.87;;;7.30;1.00;;;;;;6185596;23;20815;-78
2023/03/30 03:36:15;;;;;;;13.60;12.30;;;7.30;1.00;;;;;;6212916;23;20241;-79
2023/03/30 03:38:40;;;;;;;13.27;11.87;;;7.30;1.00;;;;;;6212246;23;20178;-78
2023/03/30 03:41:07;;;;;;;12.63;11.13;;;7.30;1.00;;;;;;6212064;23;20197;-79
2023/03/30 03:43:32;;;;;;;12.43;11.07;;;7.40;1.00;;;;;;6210924;23;20637;-79
2023/03/30 03:45:58;;;;;;;12.63;11.20;;;7.50;1.00;;;;;;6210905;23;20170;-78
2023/03/30 03:48:24;;;;;;;12.53;10.30;;;7.50;1.00;;;;;;6211120;23;20189;-78
2023/03/30 03:50:55;;;;;;;11.67;10.47;;;7.50;1.00;;;;;;6211639;23;20181;-79
2023/03/30 03:53:22;;;;;;;13.23;10.40;;;7.60;1.00;;;;;;6183904;23;20915;-79
2023/03/30 03:55:47;;;;;;;10.50;9.40;;;7.70;99.90;;;;;;6184079;23;20174;-79
2023/03/30 03:58:14;;;;;;;10.73;9.67;;;7.70;99.90;;;;;;6183830;23;20173;-79
2023/03/30 04:00:40;;;;;;;11.03;9.37;;;7.80;99.90;;;;;;6211661;23;20162;-79
2023/03/30 04:03:07;;;;;;;10.20;9.20;;;7.80;1.00;;;;;;6210584;23;20655;-79
2023/03/30 04:05:34;;;;;;;9.70;8.70;;;7.80;1.00;;;;;;6210737;23;20991;-79
2023/03/30 04:08:00;;;;;;;11.80;8.87;;;7.80;1.00;;;;;;6183885;23;20186;-78
2023/03/30 04:10:26;;;;;;;11.63;8.37;;;7.80;99.90;;;;;;6210041;23;20153;-79
2023/03/30 04:12:54;;;;;;;9.80;8.87;;;7.90;99.90;;;;;;6210199;23;20543;-79
2023/03/30 04:15:20;;;;;;;10.03;8.27;;;7.90;14.10;;;;;;6210678;23;20204;-78
2023/03/30 04:17:48;;;;;;;8.37;7.37;;;7.90;92.40;;;;;;6183505;23;20846;-79
2023/03/30 04:20:15;;;;;;;9.77;7.77;;;7.90;1.00;;;;;;6183579;23;20173;-79
2023/03/30 04:22:41;;;;;;;8.80;7.40;;;7.90;1.00;;;;;;6183849;23;20971;-79
2023/03/30 04:25:10;;;;;;;8.23;7.40;;;8.10;99.70;;;;;;6210089;23;20174;-79
2023/03/30 04:27:41;;;;;;;8.70;7.57;;;8.10;1.00;;;;;;6183540;23;20262;-79
2023/03/30 04:30:08;;;;;;;7.70;7.00;;;8.10;80.60;;;;;;6210178;23;20135;-78
2023/03/30 04:32:37;;;;;;;7.67;6.73;;;8.10;1.00;;;;;;6209779;23;21241;-79
2023/03/30 04:35:04;;;;;;;7.43;6.73;;;8.20;1.00;;;;;;6180520;23;20249;-79
2023/03/30 04:37:30;;;;;;;7.80;6.23;;;8.20;41.90;;;;;;6209024;23;20242;-79
2023/03/30 04:39:59;;;;;;;8.93;6.53;;;8.20;99.90;;;;;;6208159;23;20185;-78
2023/03/30 04:42:29;;;;;;;7.57;5.97;;;8.30;99.90;;;;;;6136328;23;1065073;-79
2023/03/30 04:44:58;;;;;;;7.00;5.80;;;8.30;1.00;;;;;;6209030;23;20186;-78
2023/03/30 04:47:24;;;;;;;6.67;5.97;;;8.40;80.00;;;;;;6209150;23;20205;-79
2023/03/30 04:49:50;;;;;;;5.93;5.30;;;8.40;1.00;;;;;;6183053;23;20673;-78
2023/03/30 04:52:16;;;;;;;7.27;5.80;;;8.40;99.90;;;;;;6182583;23;20190;-79
2023/03/30 04:54:41;;;;;;;7.20;5.57;;;8.50;1.00;;;;;;6182356;23;20511;-78
2023/03/30 04:57:07;;;;;;;6.23;5.53;;;8.60;99.90;;;;;;6208874;23;20495;-79
2023/03/30 04:59:32;;;;;;;7.27;5.40;;;8.60;6.10;;;;;;6182870;23;20673;-78
2023/03/30 05:01:58;;;;;;;5.80;5.30;;;8.70;99.90;;;;;;6182239;23;20611;-79
2023/03/30 05:04:23;;;;;;;7.53;5.30;;;8.70;1.00;;;;;;6209402;23;20609;-79
2023/03/30 05:06:49;;;;;;;10.13;5.57;;;8.70;1.00;;;;;;6209021;23;20618;-79
2023/03/30 05:09:15;;;;;;;6.00;5.40;;;8.80;1.00;;;;;;6208880;23;20574;-79
2023/03/30 05:11:41;;;;;;;6.10;4.77;;;8.70;1.00;;;;;;6182199;23;20169;-79
2023/03/30 05:14:06;;;;;;;6.70;4.83;;;8.80;99.90;;;;;;6208802;23;20488;-79
2023/03/30 05:16:32;;;;;;;5.93;4.80;;;8.90;99.90;;;;;;6208760;23;20180;-79
2023/03/30 05:18:57;;;;;;;5.70;4.77;;;9.00;1.00;;;;;;6208544;23;20154;-79
2023/03/30 05:21:23;;;;;;;5.63;4.43;;;9.50;1.00;;;;;;6182416;23;20222;-79
2023/03/30 05:23:49;;;;;;;5.37;4.87;;;8.90;1.00;;;;;;6183131;23;20159;-79
2023/03/30 05:26:14;;;;;;;6.33;4.70;;;8.80;1.00;;;;;;6183073;23;20511;-79
2023/03/30 05:28:41;;;;;;;5.70;5.00;;;8.70;1.00;;;;;;6209516;23;20378;-79
2023/03/30 05:31:07;;;;;;;6.03;4.63;;;8.80;99.90;;;;;;6210411;23;20656;-79
2023/03/30 05:33:33;;;;;;;5.20;4.70;;;8.70;99.90;;;;;;6182989;23;20154;-78
2023/03/30 05:35:58;;;;;;;5.37;4.80;;;8.80;99.90;;;;;;6209316;23;20176;-79
2023/03/30 05:38:24;;;;;;;6.20;5.23;;;8.80;99.90;;;;;;6209179;23;20236;-79
2023/03/30 05:40:53;;;;;;;5.87;4.80;;;8.80;99.90;;;;;;6208935;23;20158;-79
2023/03/30 05:43:19;;;;;;;5.23;4.27;;;8.80;99.90;;;;;;6209577;23;20686;-78
2023/03/30 05:45:45;;;;;;;4.77;4.17;;;8.90;1.00;;;;;;6209208;23;20182;-79
2023/03/30 05:48:10;;;;;;;6.33;4.40;;;8.90;1.00;;;;;;6182880;23;20186;-79
2023/03/30 05:50:36;;;;;;;7.17;4.00;;;9.00;1.00;;;;;;6209385;23;20154;-79
2023/03/30 05:53:02;;;;;;;5.10;4.13;;;9.10;1.00;;;;;;6209439;23;20153;-79
2023/03/30 05:55:27;;;;;;;4.83;4.03;;;9.20;1.00;;;;;;6209114;23;20304;-79
2023/03/30 05:57:53;;;;;;;4.20;3.80;;;9.30;1.00;;;;;;6208473;23;20138;-79
2023/03/30 06:00:20;;;;;;;5.80;4.00;;;9.30;1.00;;;;;;6182486;23;20172;-79
2023/03/30 06:02:46;;;;;;;5.80;5.20;;;9.40;1.00;;;;;;6208650;23;20151;-79
2023/03/30 06:05:12;;;;;;;6.10;5.50;;;9.50;1.00;;;;;;6208687;23;20176;-79
2023/03/30 06:07:37;;;;;;;7.53;5.43;;;9.60;1.00;;;;;;6208977;23;20182;-79
2023/03/30 06:10:05;;;;;;;5.47;4.63;;;9.80;99.90;;;;;;6182318;23;20166;-79
2023/03/30 06:12:31;;;;;;;7.30;5.10;;;9.90;99.90;;;;;;6182262;23;20158;-79
2023/03/30 06:14:57;;;;;;;10.73;5.83;;;9.90;99.90;;;;;;6181826;23;20178;-79
2023/03/30 06:17:23;;;;;;;10.90;7.43;;;10.00;99.90;;;;;;6182299;23;20294;-79
2023/03/30 06:19:48;;;;;;;9.33;6.40;;;10.10;99.90;;;;;;6208145;23;20162;-77
2023/03/30 06:22:14;;;;;;;7.93;6.50;;;10.20;99.90;;;;;;6181874;23;20201;-78
2023/03/30 06:24:40;;;;;;;8.25;5.82;;;10.30;99.90;;;;;;6208716;23;20163;-79
2023/03/30 06:27:06;;;;;;;7.13;5.85;;;10.40;99.90;;;;;;6208560;23;20634;-79
2023/03/30 06:29:31;;;;;;;7.80;5.40;;;10.50;99.90;;;;;;6181909;23;20490;-80
2023/03/30 06:31:57;;;;;;;7.50;5.47;;;10.50;99.90;;;;;;6182470;23;20138;-79
2023/03/30 06:34:23;;;;;;;5.47;3.78;;;10.50;99.90;;;;;;6210277;23;20151;-80
2023/03/30 06:36:49;;;;;;;5.82;3.75;;;10.50;99.90;;;;;;6182731;23;20142;-79
2023/03/30 06:39:16;;;;;;;5.95;3.50;;;10.60;99.90;;;;;;6180724;23;20154;-78
2023/03/30 06:41:41;;;;;;;4.80;3.47;;;10.70;99.90;;;;;;6180655;23;20181;-79
2023/03/30 06:44:09;;;;;;;4.00;3.13;;;10.80;99.90;;;;;;6203903;23;20158;-80
2023/03/30 06:46:35;;;;;;;6.43;2.90;;;11.00;99.90;;;;;;6205971;23;20261;-80
2023/03/30 06:49:01;;;;;;;3.92;2.33;;;11.30;99.90;;;;;;6179602;23;20155;-79
2023/03/30 06:51:27;;;;;;;4.78;2.60;;;11.70;99.90;;;;;;6205195;23;20154;-79
2023/03/30 06:53:52;;;;;;;6.47;2.58;;;11.70;98.00;;;;;;6202779;23;20208;-79
2023/03/30 06:56:18;;;;;;;5.43;2.03;;;11.90;73.10;;;;;;6199562;23;20908;-79
2023/03/30 06:58:44;;;;;;;5.65;2.30;;;12.40;56.40;;;;;;6173100;23;20525;-79
2023/03/30 07:01:11;;;;;;;5.50;3.15;;;12.30;44.00;;;;;;6202836;23;20158;-79
2023/03/30 07:03:37;;;;;;;5.47;2.85;;;12.30;35.10;;;;;;6207257;23;20154;-79
2023/03/30 07:06:03;;;;;;;5.57;2.60;;;12.30;32.20;;;;;;6206804;23;20632;-79
2023/03/30 07:08:29;;;;;;;3.08;1.80;;;12.30;27.00;;;;;;6209985;23;20220;-80
2023/03/30 07:10:55;;;;;;;5.35;2.45;;;12.30;21.30;;;;;;6208828;23;20155;-79
2023/03/30 07:13:20;;;;;;;4.22;1.92;;;12.40;13.30;;;;;;6206760;23;20151;-79
2023/03/30 07:15:46;;;;;;;3.78;2.08;;;12.60;1.00;;;;;;6181740;23;20192;-79
2023/03/30 07:18:12;;;;;;;4.65;1.75;;;12.70;1.00;;;;;;6208557;23;20154;-79
2023/03/30 07:20:38;;;;;;;4.00;1.90;;;12.80;1.00;;;;;;6208426;23;20154;-79
2023/03/30 07:23:04;;;;;;;3.38;1.70;;;13.00;1.00;;;;;;6207968;23;20162;-79
2023/03/30 07:25:30;;;;;;;4.55;1.88;;;13.10;1.00;;;;;;6207927;23;20185;-79
2023/03/30 07:27:56;;;;;;;4.03;1.85;;;13.20;1.00;;;;;;6207554;23;20217;-79
2023/03/30 07:30:26;;;;;;;3.65;1.83;;;13.20;1.00;;;;;;6205623;23;20229;-79
2023/03/30 07:32:51;;;;;;;4.03;1.60;;;13.20;1.00;;;;;;6203100;23;20482;-79
2023/03/30 07:35:17;;;;;;;4.00;1.73;;;13.20;1.00;;;;;;6176254;23;20229;-79
2023/03/30 07:37:42;;;;;;;3.75;1.80;;;13.30;1.00;;;;;;6174657;23;20233;-79
2023/03/30 07:40:09;;;;;;;4.28;1.95;;;13.40;1.00;;;;;;6175756;23;20150;-79
2023/03/30 07:42:34;;;;;;;2.45;1.75;;;13.50;1.00;;;;;;6201855;23;20178;-79
2023/03/30 07:45:00;;;;;;;3.83;1.48;;;13.70;1.00;;;;;;6177769;23;20664;-79
2023/03/30 07:47:26;;;;;;;4.78;1.77;;;13.70;1.00;;;;;;6180466;23;20178;-80
2023/03/30 07:49:51;;;;;;;4.55;1.80;;;13.70;1.00;;;;;;6205038;23;20158;-80
2023/03/30 07:52:17;;;;;;;3.78;1.55;;;14.00;1.00;;;;;;6174685;23;20161;-80
2023/03/30 07:54:43;;;;;;;6.38;2.28;;;13.50;1.00;;;;;;6201294;23;20182;-79
2023/03/30 07:57:10;;;;;;;3.42;1.90;;;13.70;1.00;;;;;;6174696;23;20166;-80
2023/03/30 07:59:36;;;;;;;7.38;1.92;;;13.70;1.00;;;;;;6174811;23;20154;-80
2023/03/30 08:02:01;;;;;;;4.97;1.90;;;13.80;1.00;;;;;;6201348;23;20650;-80
2023/03/30 08:04:27;;;;;;;2.75;1.80;;;13.90;1.00;;;;;;6174277;23;20154;-79
2023/03/30 08:06:53;;;;;;;6.25;1.83;;;14.00;1.00;;;;;;6175869;23;20174;-80
2023/03/30 08:09:19;;;;;;;4.30;1.77;;;14.20;1.00;;;;;;6177240;23;20155;-79
2023/03/30 08:11:45;;;;;;;2.78;1.90;;;14.20;1.00;;;;;;6179208;23;20158;-80
2023/03/30 08:14:10;;;;;;;6.65;2.28;;;14.20;1.00;;;;;;6204228;23;20177;-82
2023/03/30 08:16:36;;;;;;;6.28;2.30;;;14.20;1.00;;;;;;6180272;23;20535;-80
2023/03/30 08:19:01;;;;;;;5.30;2.17;;;14.30;1.00;;;;;;6205276;23;20164;-80
2023/03/30 08:21:27;;;;;;;5.18;2.05;;;14.40;1.00;;;;;;6206800;23;20728;-80
2023/03/30 08:23:56;;;;;;;6.97;2.20;;;14.40;1.00;;;;;;6177032;23;20158;-79
2023/03/30 08:26:22;;;;;;;4.70;2.13;;;14.50;1.00;;;;;;6203859;23;20204;-79
2023/03/30 08:28:48;;;;;;;6.65;2.25;;;14.40;1.00;;;;;;6205003;23;20358;-78
2023/03/30 08:31:14;;;;;;;4.50;2.00;;;14.40;1.00;;;;;;6178432;23;20657;-79
2023/03/30 08:33:39;;;;;;;4.68;2.10;;;14.50;1.00;;;;;;6182090;23;20166;-80
2023/03/30 08:36:05;;;;;;;4.57;2.00;;;14.50;1.00;;;;;;6214998;23;20170;-80
2023/03/30 08:38:31;;;;;;;3.97;2.40;;;14.50;1.00;;;;;;6210761;23;20158;-80
2023/03/30 08:40:57;;;;;;;5.93;2.05;;;14.60;1.00;;;;;;6201956;23;20805;-80
2023/03/30 08:43:38;;;;;;;6.00;2.15;;;14.70;1.00;;;;;;6177168;23;20256;-80
2023/03/30 08:46:03;;;;;;;4.25;1.90;;;14.80;1.00;;;;;;6205095;23;20638;-81
2023/03/30 08:48:36;;;;;;;6.68;2.15;;;15.10;1.00;;;;;;6205532;23;20469;-80
2023/03/30 08:51:26;;;;;;;4.50;2.22;;;15.70;1.00;;;;;;6204351;23;20151;-77
2023/03/30 08:53:56;;;;;;;5.35;2.28;;;15.60;1.00;;;;;;6205810;23;20142;-79
2023/03/30 08:56:27;;;;;;;4.65;2.22;;;15.70;1.00;;;;;;6204605;23;20245;-79
2023/03/30 08:59:14;;;;;;;4.60;2.20;;;15.60;1.00;;;;;;6206308;23;20268;-79
2023/03/30 09:01:52;;;;;;;7.35;2.25;;;15.60;1.00;;;;;;6178738;23;20146;-78
2023/03/30 09:04:26;;;;;;;5.50;2.05;;;15.70;1.00;;;;;;6205523;23;20405;-79
2023/03/30 09:06:56;;;;;;;5.38;2.03;;;15.70;1.00;;;;;;6204248;23;20638;-78
2023/03/30 09:09:26;;;;;;;6.60;2.30;;;15.60;1.00;;;;;;6208584;23;20158;-76
2023/03/30 09:12:06;;;;;;;4.13;2.15;;;15.60;1.00;;;;;;6182206;23;20204;-80
2023/03/30 09:14:36;;;;;;;5.60;2.10;;;15.50;1.00;;;;;;6182467;23;20483;-78
2023/03/30 09:17:20;;;;;;;7.03;2.20;;;15.30;1.00;;;;;;6182746;23;20262;-76
2023/03/30 09:20:11;;;;;;;6.32;2.05;;;15.30;1.00;;;;;;6207691;23;20762;-77
2023/03/30 09:22:40;;;;;;;5.38;2.28;;;15.30;1.00;;;;;;6203458;23;20141;-77
2023/03/30 09:25:22;;;;;;;6.65;2.28;;;15.30;1.00;;;;;;6181386;23;20185;-78
2023/03/30 09:28:07;;;;;;;3.97;2.10;;;15.50;1.00;;;;;;6181270;23;20182;-78
2023/03/30 09:30:47;;;;;;;6.82;2.17;;;15.70;1.00;;;;;;6209246;23;20174;-78
2023/03/30 09:33:34;;;;;;;4.20;2.17;;;15.50;1.00;;;;;;6210502;23;20147;-78
2023/03/30 09:36:07;;;;;;;5.43;2.30;;;15.50;1.00;;;;;;6186363;23;20185;-78
2023/03/30 09:38:36;;;;;;;5.72;2.58;;;15.70;1.00;;;;;;6213261;23;20142;-78
2023/03/30 09:41:27;;;;;;;4.95;2.47;;;15.70;1.00;;;;;;6207734;23;20174;-78
2023/03/30 09:43:57;;;;;;;7.88;2.78;;;15.70;1.00;;;;;;6209338;23;20147;-78
2023/03/30 09:46:22;;;;;;;6.32;3.00;;;15.90;1.00;;;;;;6209829;23;20630;-78
2023/03/30 09:48:49;;;;;;;6.25;2.75;;;15.80;1.00;;;;;;6208505;23;20197;-78
2023/03/30 09:51:25;;;;;;;6.15;3.00;;;15.80;1.00;;;;;;6208715;23;20161;-78
2023/03/30 09:54:03;;;;;;;5.65;2.70;;;15.60;1.00;;;;;;6182838;23;20598;-78
2023/03/30 09:56:50;;;;;;;6.22;2.75;;;15.70;1.00;;;;;;6182091;23;20181;-78
2023/03/30 09:59:35;;;;;;;6.38;2.50;;;15.70;1.00;;;;;;6210833;23;20145;-78
2023/03/30 10:02:11;;;;;;;6.47;2.58;;;16.00;1.00;;;;;;6184779;23;20150;-78
2023/03/30 10:04:59;;;;;;;5.15;2.70;;;16.30;1.00;;;;;;6211377;23;20146;-78
2023/03/30 10:07:35;;;;;;;7.63;2.65;;;16.60;1.00;;;;;;6213078;23;20210;-78
2023/03/30 10:10:16;;;;;;;5.22;2.50;;;16.80;1.00;;;;;;6182654;23;20146;-78
2023/03/30 10:12:42;;;;;;;6.28;2.80;;;16.60;1.00;;;;;;6181915;23;20220;-78
2023/03/30 10:15:15;;;;;;;4.35;2.53;;;16.60;1.00;;;;;;6185514;23;20524;-78
2023/03/30 10:17:41;;;;;;;6.18;2.58;;;16.60;1.00;;;;;;6213392;23;20147;-78
2023/03/30 10:20:23;;;;;;;5.97;2.92;;;16.20;1.00;;;;;;6211188;23;20712;-78
2023/03/30 10:22:55;;;;;;;6.90;2.63;;;15.80;1.00;;;;;;6182091;23;20610;-78
2023/03/30 10:25:34;;;;;;;6.72;3.38;;;15.50;1.00;;;;;;6211474;23;20220;-78
2023/03/30 10:28:03;;;;;;;7.18;3.03;;;15.40;1.00;;;;;;6186767;23;20216;-78
2023/03/30 10:30:30;;;;;;;6.60;2.88;;;15.20;1.00;;;;;;6212404;23;20134;-78
2023/03/30 10:33:00;;;;;;;6.32;3.15;;;15.10;1.00;;;;;;6184563;23;20700;-77
2023/03/30 10:35:37;;;;;;;7.38;2.97;;;14.90;1.00;;;;;;6211387;23;20181;-78
2023/03/30 10:38:05;;;;;;;5.75;2.55;;;14.90;1.00;;;;;;6211670;23;20586;-78
2023/03/30 10:40:37;;;;;;;6.93;3.20;;;14.70;1.00;;;;;;6185057;23;20684;-78
2023/03/30 10:43:05;;;;;;;5.10;2.83;;;14.60;1.00;;;;;;6213083;23;20176;-78
2023/03/30 10:45:39;;;;;;;5.63;3.50;;;14.50;1.00;;;;;;6211303;23;20347;-78
2023/03/30 10:48:35;;;;;;;7.93;3.13;;;14.20;18.30;;;;;;6213800;23;20833;-79
2023/03/30 10:51:16;;;;;;;8.05;3.33;;;14.10;26.20;;;;;;6213341;23;20173;-78
2023/03/30 10:53:57;;;;;;;6.55;3.28;;;14.10;90.60;;;;;;6213566;23;20162;-78
2023/03/30 10:56:38;;;;;;;8.05;3.55;;;14.30;99.90;;;;;;6213626;23;20236;-78
2023/03/30 10:59:29;;;;;;;7.22;3.85;;;14.40;99.90;;;;;;6185113;23;20150;-78
2023/03/30 11:02:07;;;;;;;5.88;3.08;;;14.80;59.00;;;;;;6210353;23;20150;-78
2023/03/30 11:04:40;;;;;;;8.10;2.90;;;15.10;15.60;;;;;;6183566;23;20166;-78
2023/03/30 11:07:26;;;;;;;5.68;3.00;;;15.30;12.50;;;;;;6183563;23;20213;-78
2023/03/30 11:09:57;;;;;;;4.60;2.80;;;15.40;2.50;;;;;;6212041;23;20142;-78
2023/03/30 11:12:28;;;;;;;6.35;3.00;;;15.60;1.00;;;;;;6207306;23;20143;-78
2023/03/30 11:15:06;;;;;;;8.13;3.03;;;15.80;1.00;;;;;;6181604;23;20638;-78
2023/03/30 11:17:37;;;;;;;7.70;3.30;;;15.90;1.00;;;;;;6182117;23;20150;-78
2023/03/30 11:20:26;;;;;;;6.68;3.22;;;16.00;1.00;;;;;;6204370;23;20146;-78
2023/03/30 11:23:26;;;;;;;8.60;3.13;;;16.20;1.00;;;;;;6204525;23;20142;-77
2023/03/30 11:26:11;;;;;;;4.43;2.92;;;16.10;1.00;;;;;;6179950;23;20746;-78
2023/03/30 11:28:58;;;;;;;4.75;2.70;;;15.80;1.00;;;;;;6206840;23;20178;-78
2023/03/30 11:31:47;;;;;;;5.65;2.50;;;15.40;1.00;;;;;;6177531;23;20142;-77
2023/03/30 11:34:46;;;;;;;5.30;2.97;;;15.00;1.00;;;;;;6207252;23;20145;-78
2023/03/30 11:37:16;;;;;;;3.53;2.60;;;14.80;1.00;;;;;;6180184;23;20154;-77
2023/03/30 11:39:50;;;;;;;4.97;2.53;;;14.80;1.00;;;;;;6206096;23;20150;-78
2023/03/30 11:42:26;;;;;;;5.38;2.80;;;15.00;1.00;;;;;;6177815;23;20174;-79
2023/03/30 11:44:51;;;;;;;9.10;3.70;;;14.80;1.00;;;;;;6204493;23;20173;-79
2023/03/30 11:48:10;;;;;;;5.28;2.38;;;14.80;1.00;;;;;;6176980;23;20190;-78
2023/03/30 11:51:06;;;;;;;5.90;2.30;;;14.50;1.00;;;;;;6054087;23;20165;-77
2023/03/30 11:53:57;;;;;;;3.03;1.65;;;14.00;1.00;;;;;;6053563;23;20146;-78
2023/03/30 11:56:47;;;;;;;3.00;1.50;;;13.40;27.40;;;;;;6155584;23;20186;-78
2023/03/30 11:59:20;;;;;;;2.92;1.40;;;13.10;97.10;;;;;;6180655;23;20504;-78
2023/03/30 12:02:01;;;;;;;3.05;1.15;;;12.90;58.90;;;;;;6207114;23;20497;-78
2023/03/30 12:04:56;;;;;;;2.58;1.40;;;12.80;90.90;;;;;;6208055;23;20135;-77
2023/03/30 12:07:43;;;;;;;1.88;1.27;;;12.70;59.00;;;;;;6201092;23;20193;-78
2023/03/30 12:10:21;;;;;;;2.45;1.10;;;12.60;62.90;;;;;;6202566;23;20135;-78
2023/03/30 12:12:50;;;;;;;4.82;1.63;;;12.60;47.20;;;;;;6202711;23;20477;-78
2023/03/30 12:15:35;;;;;;;3.30;1.65;;;12.60;48.00;;;;;;6175324;23;20228;-78
2023/03/30 12:18:28;;;;;;;3.60;1.40;;;12.70;46.20;;;;;;6208535;23;20587;-78
2023/03/30 12:21:13;;;;;;;3.30;1.30;;;12.80;1.00;;;;;;6209427;23;20158;-77
2023/03/30 12:23:48;;;;;;;4.38;1.77;;;12.90;1.00;;;;;;6182978;23;20590;-84
2023/03/30 12:26:27;;;;;;;4.93;1.80;;;12.90;1.00;;;;;;6210251;23;20170;-79
2023/03/30 12:29:02;;;;;;;5.18;2.10;;;12.90;1.00;;;;;;6182525;23;20197;-78
2023/03/30 12:31:57;;;;;;;5.05;1.75;;;12.90;1.00;;;;;;6203958;23;20395;-79
2023/03/30 12:34:26;;;;;;;4.47;1.52;;;12.90;1.00;;;;;;6171427;23;20162;-80
2023/03/30 12:37:03;;;;;;;3.88;1.90;;;12.80;1.00;;;;;;6177149;23;20166;-79
2023/03/30 12:39:49;;;;;;;5.05;1.30;;;12.90;1.00;;;;;;6176971;23;20158;-79
2023/03/30 12:43:02;;;;;;;5.72;1.60;;;13.00;1.00;;;;;;6204215;23;21113;-77
2023/03/30 12:45:33;;;;;;;4.32;1.92;;;13.30;1.00;;;;;;6138075;23;20688;-79
2023/03/30 12:48:26;;;;;;;3.08;1.55;;;13.50;1.00;;;;;;6204634;23;20588;-79
2023/03/30 12:51:15;;;;;;;5.47;1.58;;;13.60;1.00;;;;;;6203898;23;20827;-79
2023/03/30 12:54:03;;;;;;;6.30;1.60;;;13.60;1.00;;;;;;6203404;23;20220;-79
2023/03/30 12:57:01;;;;;;;6.43;1.83;;;13.80;1.00;;;;;;6177362;23;20182;-77
2023/03/30 12:59:29;;;;;;;2.92;1.30;;;14.00;1.00;;;;;;6198141;23;20552;-78
2023/03/30 13:02:26;;;;;;;3.88;1.80;;;14.10;1.00;;;;;;6177853;23;20944;-80
2023/03/30 13:04:52;;;;;;;4.75;1.88;;;14.00;1.00;;;;;;6200203;23;20669;-80
2023/03/30 13:07:25;;;;;;;4.40;2.08;;;13.80;1.00;;;;;;6172484;23;20192;-78
2023/03/30 13:09:52;;;;;;;5.35;2.05;;;13.60;1.00;;;;;;6200207;23;20154;-81
2023/03/30 13:12:39;;;;;;;6.47;2.30;;;13.50;1.00;;;;;;6199971;23;20158;-78
2023/03/30 13:15:43;;;;;;;5.05;2.13;;;13.50;1.00;;;;;;6171057;23;20678;-79
2023/03/30 13:18:08;;;;;;;5.03;2.15;;;13.50;1.00;;;;;;6173041;23;20438;-79
2023/03/30 13:20:46;;;;;;;4.82;1.95;;;13.70;1.00;;;;;;6198011;23;20146;-79